Weather observations for the past three days for
Iowa City Municipal Airport
Metric (Imperial)
Date Time (cdt) Wind (kph) Vis. (km) Weather Sky Cond. Temperature (ºC) Relative Humidity Wind Chill (°C) Heat Index (°C) Pressure Precipitation (cm)
Air Dwpt 6 hour altimeter (cm) sea level (mb) 1 hr 3 hr 6 hr
Max. Min.
04 22:52 Calm 16.09 Fair CLR 26.7 24.4 87% 30 76 1012.4
04 21:52 SW 6 16.09 Fair CLR 28.9 24.4 77% 34 75.97 1012.0
04 20:52 Calm 16.09 Fair CLR 27.8 24.4 82% 32 75.95 1011.8
04 19:52 Calm 16.09 A Few Clouds FEW120 29.4 25 77% 35 75.97 1012.1
04 18:52 Calm 16.09 Fair CLR 33.3 23.3 35 33.3 56% 39 75.97 1012.1
04 17:52 S 9 16.09 Fair CLR 33.9 22.8 52% 39 75.95 1011.7
04 16:52 S 19 16.09 Fair CLR 34.4 22.8 51% 40 75.92 1011.3
04 15:52 S 24 16.09 Fair CLR 35 23.3 51% 41 75.92 1011.2
04 14:52 S 20 16.09 Fair CLR 34.4 22.2 49% 39 75.97 1012.1
04 13:52 SW 15 16.09 Fair CLR 34.4 22.8 51% 40 76 1012.6
04 12:52 SW 22 G 33 16.09 Fair CLR 33.9 22.2 33.9 23.9 50% 38 76.05 1013.2
04 11:52 SW 15 16.09 Fair CLR 33.3 22.8 54% 38 76.07 1013.5
04 10:52 W 17 16.09 Fair CLR 32.8 22.2 54% 37 76.07 1013.5
04 09:52 SW 11 16.09 Fair CLR 30 22.8 65% 34 76.05 1013.2
04 08:52 SW 7 16.09 Fair CLR 28.3 22.2 70% 31 76.05 1013.0
04 07:52 Calm 16.09 Fair CLR 25.6 22.2 82% 27 76.02 1012.7
04 06:52 Calm 16.09 Fair CLR 23.9 21.7 25.6 22.2 88% 24 76 1012.3
04 05:52 Calm 16.09 Fair CLR 23.3 22.2 94% 75.97 1012.0
04 04:52 Calm 16.09 Fair CLR 24.4 22.2 88% 25 75.95 1011.8
04 03:52 SE 6 16.09 Fair CLR 23.9 22.2 90% 23 75.9 1011.1
04 02:52 S 6 16.09 Fair CLR 24.4 22.8 91% 24 75.9 1011.2
04 01:52 Calm 16.09 Fair CLR 25 23.3 90% 26 75.95 1011.6
04 00:52 Calm 16.09 Fair CLR 25.6 23.9 32.8 25 90% 27 75.97 1011.9
03 23:52 SE 6 16.09 Fair CLR 26.1 23.9 88% 28 75.97 1011.9
03 22:52 Calm 16.09 Fair CLR 27.2 24.4 85% 31 75.95 1011.7
03 21:52 S 6 16.09 Fair CLR 28.3 24.4 79% 33 75.92 1011.6
03 20:52 SE 6 16.09 Fair CLR 28.9 24.4 77% 34 75.9 1011.0
03 19:52 S 13 16.09 Fair CLR 30 23.9 70% 35 75.82 1010.3
03 18:52 S 19 16.09 Fair CLR 32.8 24.4 35 32.8 61% 39 75.79 1009.9
03 17:52 S 17 16.09 Fair CLR 33.3 23.9 58% 39 75.84 1010.3
03 16:52 S 17 16.09 Fair CLR 34.4 23.3 52% 40 75.87 1010.7
03 15:52 S 15 16.09 Fair CLR 34.4 23.3 52% 40 75.95 1011.8
03 14:52 SW 15 16.09 Fair CLR 35 22.8 49% 40 75.95 1011.7
03 13:52 W 9 16.09 Fair CLR 33.9 22.8 52% 39 75.97 1012.1
03 12:52 Vrbl 6 16.09 Fair CLR 33.3 22.8 33.3 22.8 54% 38 76.02 1012.6
03 11:52 W 9 16.09 Fair CLR 32.8 22.2 54% 37 76.05 1013.1
03 10:52 Vrbl 6 16.09 Fair CLR 30.6 22.2 61% 34 76.05 1013.3
03 09:52 NE 7 16.09 Fair CLR 29.4 22.2 65% 33 76.07 1013.4
03 08:52 N 15 16.09 Mostly Cloudy BKN120 27.2 22.2 74% 30 76.07 1013.6
03 07:52 Calm 16.09 A Few Clouds FEW120 25 22.2 85% 26 76.02 1012.8
03 06:52 SE 6 16.09 Fair CLR 23.3 21.7 26.1 23.3 91% 76 1012.5
03 05:52 SE 6 16.09 Fair CLR 23.3 21.7 91% 75.95 1011.8
03 04:52 SE 6 16.09 Fair CLR 23.9 21.7 88% 24 75.95 1011.9
03 03:52 Calm 16.09 Fair CLR 25 21.7 82% 26 75.95 1011.9
03 02:52 SE 6 16.09 Fair CLR 25 22.2 85% 26 75.95 1011.8
03 01:52 Calm 16.09 Fair CLR 26.1 22.2 79% 28 75.97 1012.0
03 00:52 S 7 16.09 Fair CLR 25.6 22.2 31.7 25.6 82% 27 75.97 1012.1
02 23:52 S 6 16.09 Fair CLR 26.1 22.8 82% 28 75.95 1011.9
02 22:52 S 9 16.09 Fair CLR 26.7 23.9 85% 29 75.95 1011.9
02 21:52 Calm 16.09 Fair CLR 27.8 24.4 82% 32 75.95 1011.9
02 20:52 S 6 16.09 Fair CLR 28.3 24.4 79% 33 75.92 1011.6
02 19:52 Calm 16.09 Fair CLR 30 25 75% 36 75.9 1011.2
02 18:52 S 11 16.09 Fair CLR 31.7 25 35 31.7 68% 39 75.9 1011.3
02 17:52 SW 13 16.09 Fair CLR 34.4 23.9 54% 41 75.92 1011.4
02 16:52 SW 11 16.09 Fair CLR 34.4 22.8 51% 40 75.95 1011.7
02 15:52 SW 15 16.09 Fair CLR 34.4 22.2 49% 39 75.97 1012.1
02 14:52 SW 15 16.09 Fair CLR 35 22.2 47% 40 76 1012.2
02 13:52 SW 15 16.09 Fair CLR 34.4 22.2 49% 39 76 1012.6
02 12:52 SW 19 16.09 Fair CLR 33.9 21.1 33.9 23.9 47% 37 76.05 1013.2
02 11:52 SW 13 16.09 Mostly Cloudy BKN110 32.8 22.2 54% 37 76.1 1013.8
02 10:52 S 11 16.09 NULL NULL 30 22.2 63% 33 76.1 1013.8
02 09:52 S 9 16.09 Mostly Cloudy BKN110 28.3 22.2 70% 31 76.1 1013.7
02 08:52 S 9 16.09 Fair CLR 26.1 21.7 77% 28 76.1 1013.9
02 07:52 S 7 16.09 Fair CLR 25.6 21.1 76% 27 76.12 1014.3
02 06:52 W 7 16.09 Mostly Cloudy BKN110 24.4 20.6 25.6 22.8 79% 25 76.12 1014.2
02 05:52 Calm 16.09 Fair CLR 23.9 20 79% 24 76.05 1013.0
02 04:52 S 6 16.09 Fair CLR 23.9 20 79% 24 76.05 1013.1
02 03:52 SW 7 16.09 A Few Clouds FEW110 25 20 74% 26 76.07 1013.5
02 02:52 Calm 16.09 Fair CLR 23.9 20 79% 24 76.05 1012.9
02 01:52 S 9 16.09 A Few Clouds FEW100 22.8 20.6 87% 76.02 1012.8
02 00:52 Calm 16.09 Fair CLR 23.9 20.6 31.7 23.9 82% 24 76.05 1013.1
01 23:52 S 9 16.09 NULL NULL 24.4 22.2 88% 25 76.05 1013.3
Date Time (cdt) Wind (kph) Vis. (km) Weather Sky Cond. Air Dwpt Max. Min. Relative Humidity Wind Chill (°C) Heat Index (°C) altimeter (cm) sea level (mb) 1 hr 3 hr 6 hr
6 hour
Temperature (ºC) Pressure Precipitation (cm)